Time;durP1;ratioP1;P1;durP2;ratioP2;P2;SDS_P1;SDS_P2;PMS_P1;PMS_P2;Temp;Humidity;BMP_temperature;BMP_pressure;BME280_temperature;BME280_humidity;BME280_pressure;Samples;Min_cycle;Max_cycle;Signal;HPM_P1;HPM_P2
2023/06/16 00:02:21;;;;;;;;;;;24.50;51.30;;;;;;9900214;28;19943;-60
2023/06/16 00:07:12;;;;;;;;;;;24.50;51.50;;;;;;9893983;28;19915;-61
2023/06/16 00:12:03;;;;;;;;;;;24.40;51.40;;;;;;9896315;28;19918;-59
2023/06/16 00:16:53;;;;;;;;;;;24.50;51.40;;;;;;9892941;28;19938;-59
2023/06/16 00:21:45;;;;;;;;;;;24.20;52.10;;;;;;9893244;28;20357;-59
2023/06/16 00:26:36;;;;;;;;;;;24.00;52.40;;;;;;9893129;28;19922;-59
2023/06/16 00:31:26;;;;;;;;;;;23.90;52.70;;;;;;9886591;28;20257;-59
2023/06/16 00:36:17;;;;;;;;;;;23.80;52.60;;;;;;9917681;28;20134;-60
2023/06/16 00:41:07;;;;;;;;;;;23.80;52.50;;;;;;9947727;28;19919;-60
2023/06/16 00:45:58;;;;;;;;;;;23.50;52.40;;;;;;9890722;28;19915;-59
2023/06/16 00:50:49;;;;;;;;;;;23.30;52.80;;;;;;9908163;28;19980;-58
2023/06/16 00:55:40;;;;;;;;;;;23.20;53.00;;;;;;9900383;28;19925;-60
2023/06/16 01:00:35;;;;;;;;;;;23.30;53.10;;;;;;9909949;28;19921;-59
2023/06/16 01:05:27;;;;;;;;;;;23.20;53.20;;;;;;9902716;28;19926;-59
2023/06/16 01:10:19;;;;;;;;;;;23.00;53.40;;;;;;9899157;28;19910;-59
2023/06/16 01:15:12;;;;;;;;;;;23.00;53.60;;;;;;9894465;28;20296;-60
2023/06/16 01:20:09;;;;;;;;;;;23.00;53.50;;;;;;9899679;28;19919;-58
2023/06/16 01:25:03;;;;;;;;;;;23.10;53.40;;;;;;9898956;28;19910;-60
2023/06/16 01:29:53;;;;;;;;;;;23.00;53.60;;;;;;9897044;28;20402;-58
2023/06/16 01:34:44;;;;;;;;;;;23.10;53.70;;;;;;9899096;28;19918;-61
2023/06/16 01:39:35;;;;;;;;;;;23.00;54.00;;;;;;9897296;28;19925;-60
2023/06/16 01:44:30;;;;;;;;;;;22.90;54.10;;;;;;9898650;28;20001;-60
2023/06/16 01:49:21;;;;;;;;;;;23.00;54.00;;;;;;9896585;28;19914;-58
2023/06/16 01:54:12;;;;;;;;;;;23.00;54.00;;;;;;9898035;28;19917;-60
2023/06/16 01:59:02;;;;;;;;;;;22.80;54.10;;;;;;9906003;28;20439;-62
2023/06/16 02:03:56;;;;;;;;;;;22.80;54.30;;;;;;9902129;28;20344;-59
2023/06/16 02:08:48;;;;;;;;;;;22.80;54.30;;;;;;9897413;29;19962;-58
2023/06/16 02:13:38;;;;;;;;;;;22.90;54.20;;;;;;9896611;28;20008;-58
2023/06/16 02:18:32;;;;;;;;;;;22.90;54.40;;;;;;9897341;28;20037;-60
2023/06/16 02:23:22;;;;;;;;;;;22.80;54.50;;;;;;9897036;28;19914;-58
2023/06/16 02:28:13;;;;;;;;;;;22.70;54.70;;;;;;9897272;28;19910;-60
2023/06/16 02:33:04;;;;;;;;;;;22.70;54.50;;;;;;9896962;28;19911;-58
2023/06/16 02:37:55;;;;;;;;;;;22.70;54.60;;;;;;9895481;28;20333;-58
2023/06/16 02:42:46;;;;;;;;;;;22.70;54.70;;;;;;9896921;28;19914;-60
2023/06/16 02:47:36;;;;;;;;;;;22.40;55.10;;;;;;9896350;28;19980;-60
2023/06/16 02:52:27;;;;;;;;;;;22.40;55.10;;;;;;9896392;28;20431;-59
2023/06/16 02:57:17;;;;;;;;;;;22.40;55.20;;;;;;9899318;28;19957;-59
2023/06/16 03:02:08;;;;;;;;;;;22.30;55.10;;;;;;9898778;28;19922;-59
2023/06/16 03:06:58;;;;;;;;;;;22.30;55.00;;;;;;9910238;28;19911;-58
2023/06/16 03:11:49;;;;;;;;;;;22.30;55.10;;;;;;9923036;28;19925;-60
2023/06/16 03:16:40;;;;;;;;;;;22.30;55.10;;;;;;9892686;28;20581;-58
2023/06/16 03:21:31;;;;;;;;;;;22.20;55.30;;;;;;9896177;28;19992;-60
2023/06/16 03:26:22;;;;;;;;;;;22.10;55.50;;;;;;9894525;28;20001;-60
2023/06/16 03:31:12;;;;;;;;;;;22.30;55.50;;;;;;9895185;28;19918;-60
2023/06/16 03:36:03;;;;;;;;;;;22.30;55.40;;;;;;9895730;28;20328;-59
2023/06/16 03:40:54;;;;;;;;;;;22.30;55.50;;;;;;9896068;28;19925;-60
2023/06/16 03:45:45;;;;;;;;;;;22.20;55.50;;;;;;9895110;29;19917;-59
2023/06/16 03:50:35;;;;;;;;;;;22.00;55.80;;;;;;9894398;28;19922;-59
2023/06/16 03:55:26;;;;;;;;;;;21.90;56.10;;;;;;9894775;28;19928;-59
2023/06/16 04:00:16;;;;;;;;;;;21.80;56.30;;;;;;9901240;28;20415;-59
2023/06/16 04:05:08;;;;;;;;;;;21.90;56.30;;;;;;9895641;28;19918;-59
2023/06/16 04:09:58;;;;;;;;;;;21.90;56.50;;;;;;9893881;28;20019;-60
2023/06/16 04:14:49;;;;;;;;;;;21.70;56.70;;;;;;9895468;28;20391;-59
2023/06/16 04:19:41;;;;;;;;;;;21.80;56.80;;;;;;9901400;28;20554;-58
2023/06/16 04:24:31;;;;;;;;;;;21.80;56.90;;;;;;9899241;28;19914;-59
2023/06/16 04:29:22;;;;;;;;;;;21.80;56.90;;;;;;9901313;28;19929;-61
2023/06/16 04:34:12;;;;;;;;;;;21.70;57.10;;;;;;9901367;28;20273;-60
2023/06/16 04:39:03;;;;;;;;;;;21.70;57.40;;;;;;9900895;28;19923;-59
2023/06/16 04:43:54;;;;;;;;;;;22.00;57.10;;;;;;9900193;28;19910;-59
2023/06/16 04:48:44;;;;;;;;;;;22.10;57.20;;;;;;9899664;28;19910;-60
2023/06/16 04:53:36;;;;;;;;;;;21.80;57.40;;;;;;9899492;28;20037;-60
2023/06/16 04:58:27;;;;;;;;;;;21.90;57.30;;;;;;9905592;28;19926;-60
2023/06/16 05:03:17;;;;;;;;;;;21.90;57.20;;;;;;9903526;28;20003;-60
2023/06/16 05:08:08;;;;;;;;;;;22.00;57.20;;;;;;9897322;29;20004;-60
2023/06/16 05:12:58;;;;;;;;;;;22.00;57.10;;;;;;9895222;28;20377;-60
2023/06/16 05:17:49;;;;;;;;;;;22.00;57.10;;;;;;9891762;28;19918;-60
2023/06/16 05:22:39;;;;;;;;;;;22.00;57.30;;;;;;9899012;28;20175;-59
2023/06/16 05:27:30;;;;;;;;;;;22.30;56.90;;;;;;9898363;28;20013;-59
2023/06/16 05:32:21;;;;;;;;;;;22.20;56.90;;;;;;9898812;28;20012;-61
2023/06/16 05:37:15;;;;;;;;;;;22.10;57.10;;;;;;9898686;28;19929;-60
2023/06/16 05:42:05;;;;;;;;;;;22.10;57.10;;;;;;9897530;28;19921;-58
2023/06/16 05:46:56;;;;;;;;;;;22.20;57.10;;;;;;9897736;28;19921;-59
2023/06/16 05:51:47;;;;;;;;;;;22.30;57.20;;;;;;9897764;28;20364;-59
2023/06/16 05:56:37;;;;;;;;;;;22.40;57.20;;;;;;9897473;28;19919;-59
2023/06/16 06:01:28;;;;;;;;;;;22.60;57.10;;;;;;9925614;28;19968;-60
2023/06/16 06:06:18;;;;;;;;;;;22.60;57.00;;;;;;9897315;28;20005;-59
2023/06/16 06:11:09;;;;;;;;;;;22.80;56.90;;;;;;9897493;29;20392;-60
2023/06/16 06:16:00;;;;;;;;;;;22.60;57.20;;;;;;9885416;28;19918;-60
2023/06/16 06:20:51;;;;;;;;;;;22.30;57.50;;;;;;9895750;28;19914;-60
2023/06/16 06:25:42;;;;;;;;;;;22.40;57.50;;;;;;9897625;28;20001;-59
2023/06/16 06:30:32;;;;;;;;;;;22.60;57.30;;;;;;9896762;28;20595;-60
2023/06/16 06:35:23;;;;;;;;;;;22.70;57.10;;;;;;9897409;28;19915;-58
2023/06/16 06:40:13;;;;;;;;;;;22.90;57.00;;;;;;9896977;28;19949;-58
2023/06/16 06:45:04;;;;;;;;;;;22.90;57.00;;;;;;9896728;29;20392;-58
2023/06/16 06:49:55;;;;;;;;;;;23.00;56.90;;;;;;9897482;28;19981;-59
2023/06/16 06:54:45;;;;;;;;;;;23.00;56.90;;;;;;9897251;28;20075;-58
2023/06/16 06:59:38;;;;;;;;;;;23.00;56.90;;;;;;9903813;28;19929;-59
2023/06/16 07:04:29;;;;;;;;;;;23.20;56.80;;;;;;9896894;28;20009;-59
2023/06/16 07:09:20;;;;;;;;;;;23.20;56.70;;;;;;9896092;28;20530;-59
2023/06/16 07:14:12;;;;;;;;;;;23.10;57.00;;;;;;9895713;29;20005;-58
2023/06/16 07:19:03;;;;;;;;;;;23.10;57.00;;;;;;9895427;28;19926;-59
2023/06/16 07:23:53;;;;;;;;;;;23.20;57.00;;;;;;9894768;28;19918;-60
2023/06/16 07:28:44;;;;;;;;;;;23.30;57.10;;;;;;9894958;28;20296;-60
2023/06/16 07:33:34;;;;;;;;;;;23.40;57.00;;;;;;9895114;28;19918;-59
2023/06/16 07:38:25;;;;;;;;;;;23.40;57.10;;;;;;9893331;28;19918;-62
2023/06/16 07:43:15;;;;;;;;;;;23.60;56.90;;;;;;9887542;28;19914;-60
2023/06/16 07:48:08;;;;;;;;;;;23.60;56.80;;;;;;9893873;28;19915;-64
2023/06/16 07:52:59;;;;;;;;;;;23.60;57.00;;;;;;9894087;28;19910;-62
2023/06/16 07:57:49;;;;;;;;;;;23.60;57.10;;;;;;9903025;28;20326;-63
2023/06/16 08:02:40;;;;;;;;;;;23.80;57.10;;;;;;9899841;28;19973;-62
2023/06/16 08:07:30;;;;;;;;;;;24.10;56.90;;;;;;9884757;28;20005;-63
2023/06/16 08:12:21;;;;;;;;;;;24.10;56.80;;;;;;9895067;28;19998;-62
2023/06/16 08:17:11;;;;;;;;;;;24.20;56.90;;;;;;9894644;28;19918;-63
2023/06/16 08:22:03;;;;;;;;;;;24.50;56.60;;;;;;9894184;28;19914;-60
2023/06/16 08:26:53;;;;;;;;;;;24.40;56.40;;;;;;9893454;28;19921;-62
2023/06/16 08:31:44;;;;;;;;;;;24.40;56.50;;;;;;9893739;28;20001;-60
2023/06/16 08:36:34;;;;;;;;;;;24.50;56.50;;;;;;9893546;28;19922;-61
2023/06/16 08:41:25;;;;;;;;;;;24.50;56.50;;;;;;9909136;28;20356;-60
2023/06/16 08:46:16;;;;;;;;;;;24.50;56.70;;;;;;9892219;28;19964;-59
2023/06/16 08:51:09;;;;;;;;;;;24.60;56.70;;;;;;9893637;28;19910;-60
2023/06/16 08:56:01;;;;;;;;;;;24.80;56.50;;;;;;9887080;28;19918;-61
2023/06/16 09:00:52;;;;;;;;;;;25.00;56.30;;;;;;9904121;28;20015;-59
2023/06/16 09:05:43;;;;;;;;;;;25.00;56.10;;;;;;9899962;28;19965;-59
2023/06/16 09:10:34;;;;;;;;;;;25.10;56.00;;;;;;9899456;28;19914;-59
2023/06/16 09:15:24;;;;;;;;;;;25.30;55.90;;;;;;9899622;28;20276;-58
2023/06/16 09:20:15;;;;;;;;;;;25.50;56.00;;;;;;9898961;28;19929;-58
2023/06/16 09:25:07;;;;;;;;;;;25.50;55.90;;;;;;9899323;28;20353;-60
2023/06/16 09:29:59;;;;;;;;;;;25.30;55.90;;;;;;9890569;28;20112;-59
2023/06/16 09:34:50;;;;;;;;;;;25.30;55.90;;;;;;9899546;28;19956;-61
2023/06/16 09:39:40;;;;;;;;;;;25.50;55.60;;;;;;9898296;28;19965;-59
2023/06/16 09:44:31;;;;;;;;;;;25.60;55.60;;;;;;9898287;28;19914;-60
2023/06/16 09:49:23;;;;;;;;;;;25.80;55.40;;;;;;9895510;28;19918;-61
2023/06/16 09:54:14;;;;;;;;;;;25.90;55.10;;;;;;9897097;28;20284;-62
2023/06/16 09:59:05;;;;;;;;;;;26.00;55.10;;;;;;9905329;28;19918;-62
2023/06/16 10:03:55;;;;;;;;;;;25.90;54.90;;;;;;9902594;28;19953;-60
2023/06/16 10:08:49;;;;;;;;;;;26.10;55.10;;;;;;9897887;28;20000;-61
2023/06/16 10:13:40;;;;;;;;;;;26.10;54.60;;;;;;9895929;28;19910;-60
2023/06/16 10:18:31;;;;;;;;;;;26.10;54.40;;;;;;9897280;28;19922;-62
2023/06/16 10:23:22;;;;;;;;;;;26.20;54.40;;;;;;9897730;28;19915;-65
2023/06/16 10:28:14;;;;;;;;;;;26.30;54.00;;;;;;9897174;28;20330;-61
2023/06/16 10:33:18;;;;;;;;;;;26.50;53.80;;;;;;9897422;28;19910;-61
2023/06/16 10:38:08;;;;;;;;;;;26.40;53.80;;;;;;9896853;28;20350;-60
2023/06/16 10:48:27;;;;;;;;;;;26.70;53.60;;;;;;9881004;28;19933;-63
2023/06/16 10:53:23;;;;;;;;;;;26.70;52.40;;;;;;9897009;28;19988;-61
2023/06/16 10:58:16;;;;;;;;;;;26.70;52.70;;;;;;9899420;28;19934;-62
2023/06/16 11:03:06;;;;;;;;;;;26.80;52.60;;;;;;9901278;28;19922;-62
2023/06/16 11:08:01;;;;;;;;;;;26.80;52.30;;;;;;9896584;28;19911;-63
2023/06/16 11:12:52;;;;;;;;;;;26.80;51.70;;;;;;9893525;28;19936;-65
2023/06/16 11:17:47;;;;;;;;;;;27.10;51.60;;;;;;9891798;28;19971;-66
2023/06/16 11:22:38;;;;;;;;;;;27.20;51.40;;;;;;9895707;28;19910;-63
2023/06/16 11:27:30;;;;;;;;;;;27.20;50.80;;;;;;9894985;28;19915;-64
2023/06/16 11:32:24;;;;;;;;;;;27.10;51.10;;;;;;9896336;28;19914;-65
2023/06/16 11:37:15;;;;;;;;;;;27.10;51.10;;;;;;9893165;28;20005;-64
2023/06/16 11:42:10;;;;;;;;;;;27.30;50.70;;;;;;9896166;28;20445;-66
2023/06/16 11:47:01;;;;;;;;;;;27.60;50.10;;;;;;9894396;28;20014;-64
2023/06/16 11:51:53;;;;;;;;;;;27.80;50.00;;;;;;9891213;28;20380;-64
2023/06/16 11:56:48;;;;;;;;;;;28.00;49.30;;;;;;9880882;28;19997;-64
2023/06/16 12:01:39;;;;;;;;;;;28.30;49.70;;;;;;9900810;28;20498;-68
2023/06/16 12:06:30;;;;;;;;;;;28.50;49.50;;;;;;9891350;28;20491;-65
2023/06/16 12:11:23;;;;;;;;;;;28.70;49.40;;;;;;9883939;28;19946;-64
2023/06/16 12:16:14;;;;;;;;;;;28.50;49.60;;;;;;9875445;28;19923;-65
2023/06/16 12:21:18;;;;;;;;;;;28.60;49.10;;;;;;9873468;28;19910;-64
2023/06/16 12:31:55;;;;;;;;;;;28.50;49.50;;;;;;9879291;28;19921;-63
2023/06/16 12:36:47;;;;;;;;;;;28.70;48.80;;;;;;9879159;28;19922;-64
2023/06/16 12:41:37;;;;;;;;;;;29.10;48.70;;;;;;9904180;28;20210;-65
2023/06/16 12:46:28;;;;;;;;;;;29.90;49.00;;;;;;9939005;28;20119;-65
2023/06/16 12:51:20;;;;;;;;;;;30.40;48.60;;;;;;9953232;28;20384;-64
2023/06/16 12:56:11;;;;;;;;;;;31.20;46.70;;;;;;9899695;28;19922;-65
2023/06/16 13:01:01;;;;;;;;;;;31.90;47.80;;;;;;9908593;28;19922;-65
2023/06/16 13:05:52;;;;;;;;;;;33.10;48.20;;;;;;9899208;28;19932;-65
2023/06/16 13:10:43;;;;;;;;;;;33.70;48.00;;;;;;9899825;28;19920;-65
2023/06/16 13:15:33;;;;;;;;;;;34.50;46.30;;;;;;9889232;28;19911;-65
2023/06/16 13:20:24;;;;;;;;;;;34.30;45.00;;;;;;9895159;28;19910;-64
2023/06/16 13:25:14;;;;;;;;;;;34.90;46.00;;;;;;9899284;28;19993;-65
2023/06/16 13:30:05;;;;;;;;;;;32.10;45.80;;;;;;9898594;28;19910;-66
2023/06/16 13:34:56;;;;;;;;;;;30.80;46.20;;;;;;9898670;28;19915;-63
2023/06/16 13:39:46;;;;;;;;;;;32.60;45.80;;;;;;9898590;28;19962;-65
2023/06/16 13:44:36;;;;;;;;;;;35.00;43.60;;;;;;9898566;29;19910;-66
2023/06/16 13:49:27;;;;;;;;;;;35.90;43.70;;;;;;9897484;28;19914;-65
2023/06/16 13:54:18;;;;;;;;;;;36.20;42.10;;;;;;9898915;28;19910;-65
2023/06/16 13:59:08;;;;;;;;;;;36.80;42.80;;;;;;9904958;28;20307;-65
2023/06/16 14:03:59;;;;;;;;;;;37.20;42.30;;;;;;9902032;28;20433;-66
2023/06/16 14:08:51;;;;;;;;;;;36.70;41.10;;;;;;9897917;28;20360;-62
2023/06/16 14:13:44;;;;;;;;;;;35.90;41.40;;;;;;9897797;28;20291;-62
2023/06/16 14:18:34;;;;;;;;;;;36.10;41.60;;;;;;9896842;28;19922;-62
2023/06/16 14:23:25;;;;;;;;;;;36.80;41.10;;;;;;9897445;28;19914;-62
2023/06/16 14:28:15;;;;;;;;;;;34.50;41.60;;;;;;9896841;28;19956;-63
2023/06/16 14:33:06;;;;;;;;;;;35.20;41.60;;;;;;9896888;28;19914;-64
2023/06/16 14:37:56;;;;;;;;;;;36.40;40.20;;;;;;9896616;28;19922;-63
2023/06/16 14:42:47;;;;;;;;;;;36.30;41.10;;;;;;9896864;29;19910;-62
2023/06/16 14:47:37;;;;;;;;;;;37.00;40.60;;;;;;9896846;28;20268;-62
2023/06/16 14:52:28;;;;;;;;;;;37.90;40.00;;;;;;9894648;28;19915;-63
2023/06/16 14:57:18;;;;;;;;;;;37.70;40.50;;;;;;9900452;28;19922;-64
2023/06/16 15:02:09;;;;;;;;;;;37.20;40.40;;;;;;9902191;28;19972;-62
2023/06/16 15:07:00;;;;;;;;;;;35.40;41.50;;;;;;9894555;28;20434;-61
2023/06/16 15:11:50;;;;;;;;;;;36.40;40.60;;;;;;9896432;28;19910;-62
2023/06/16 15:16:41;;;;;;;;;;;37.10;39.50;;;;;;9896346;29;19922;-62
2023/06/16 15:21:31;;;;;;;;;;;36.80;39.80;;;;;;9895867;28;20280;-62
2023/06/16 15:26:22;;;;;;;;;;;37.20;40.00;;;;;;9895567;28;19922;-61
2023/06/16 15:31:13;;;;;;;;;;;37.30;39.80;;;;;;9895071;28;19933;-61
2023/06/16 15:36:04;;;;;;;;;;;36.80;39.00;;;;;;9895727;28;20368;-62
2023/06/16 15:40:55;;;;;;;;;;;37.30;39.60;;;;;;9895347;28;20013;-62
2023/06/16 15:45:46;;;;;;;;;;;38.80;39.00;;;;;;9894982;28;19914;-62
2023/06/16 15:50:36;;;;;;;;;;;39.40;38.70;;;;;;9894452;28;20246;-64
2023/06/16 15:55:27;;;;;;;;;;;38.00;38.80;;;;;;9894750;28;19964;-63
2023/06/16 16:00:17;;;;;;;;;;;38.50;38.70;;;;;;9897593;28;19918;-62
2023/06/16 16:05:08;;;;;;;;;;;39.60;38.10;;;;;;9899940;28;20048;-61
2023/06/16 16:12:30;;;;;;;3.72;3.30;;;39.60;37.00;;;;;;10223953;27;20733;-64
2023/06/16 16:17:21;;;;;;;;;;;39.50;37.80;;;;;;10211546;28;20032;-61
2023/06/16 16:22:11;;;;;;;6.27;3.90;;;40.30;36.80;;;;;;10206954;28;19941;-62
2023/06/16 16:27:02;;;;;;;;;;;40.40;36.70;;;;;;10211456;28;20619;-62
2023/06/16 16:31:53;;;;;;;4.43;3.40;;;40.80;35.70;;;;;;10210147;28;20238;-63
2023/06/16 16:36:43;;;;;;;;;;;41.10;35.90;;;;;;10211500;28;20102;-63
2023/06/16 16:41:34;;;;;;;4.87;4.37;;;41.70;35.40;;;;;;10209128;28;19911;-62
2023/06/16 16:46:26;;;;;;;4.30;3.47;;;41.70;35.70;;;;;;10209752;28;20069;-63
2023/06/16 16:51:17;;;;;;;6.78;3.30;;;41.20;35.70;;;;;;10190720;28;20079;-62
2023/06/16 16:56:07;;;;;;;4.13;3.67;;;41.10;35.50;;;;;;10207431;28;20065;-62
2023/06/16 17:00:58;;;;;;;5.95;3.38;;;41.10;35.20;;;;;;10202887;28;20039;-63
2023/06/16 17:05:50;;;;;;;;;;;41.10;35.00;;;;;;10187382;28;20020;-61
2023/06/16 17:10:40;;;;;;;4.95;3.55;;;40.50;35.00;;;;;;10199786;28;19915;-63
2023/06/16 17:15:31;;;;;;;4.97;3.35;;;40.40;35.30;;;;;;10198933;28;20534;-62
2023/06/16 17:20:22;;;;;;;7.68;3.05;;;40.50;35.00;;;;;;10198500;28;20293;-62
2023/06/16 17:25:12;;;;;;;;;;;39.80;35.20;;;;;;10174326;28;20366;-64
2023/06/16 17:30:03;;;;;;;4.33;3.10;;;39.70;35.30;;;;;;10169282;28;19916;-63
2023/06/16 17:34:54;;;;;;;;;;;40.10;35.40;;;;;;10181258;28;20490;-62
2023/06/16 17:39:45;;;;;;;8.90;3.70;;;39.00;35.40;;;;;;10177666;28;20031;-64
2023/06/16 17:44:35;;;;;;;5.47;3.23;;;38.30;35.60;;;;;;10178998;28;20096;-63
2023/06/16 17:49:26;;;;;;;5.23;3.60;;;37.80;36.00;;;;;;10157973;28;20070;-64
2023/06/16 17:54:19;;;;;;;4.72;3.88;;;37.50;36.30;;;;;;10173758;28;20129;-64
2023/06/16 17:59:09;;;;;;;3.58;3.25;;;36.90;36.70;;;;;;10176985;28;20222;-62
2023/06/16 18:04:00;;;;;;;4.97;3.60;;;36.60;36.90;;;;;;10175370;28;20032;-63
2023/06/16 18:08:51;;;;;;;4.30;3.47;;;35.00;37.50;;;;;;10170225;28;20052;-63
2023/06/16 18:13:41;;;;;;;6.80;3.67;;;33.40;38.10;;;;;;10134133;28;20160;-64
2023/06/16 18:18:32;;;;;;;6.28;4.10;;;32.40;38.40;;;;;;10101810;28;20390;-63
2023/06/16 18:23:23;;;;;;;4.22;3.53;;;32.10;38.60;;;;;;10111164;28;20027;-62
2023/06/16 18:28:13;;;;;;;5.63;3.05;;;31.60;38.90;;;;;;10125311;28;20063;-64
2023/06/16 18:33:04;;;;;;;5.55;4.25;;;31.20;39.20;;;;;;10133708;28;20032;-64
2023/06/16 18:37:55;;;;;;;6.45;4.13;;;31.20;39.40;;;;;;10107261;28;20111;-65
2023/06/16 18:42:45;;;;;;;5.10;3.70;;;31.30;39.60;;;;;;10136215;28;20036;-63
2023/06/16 18:47:36;;;;;;;6.97;4.18;;;31.10;39.90;;;;;;10126675;28;20398;-64
2023/06/16 18:52:27;;;;;;;8.07;4.47;;;30.90;40.10;;;;;;10117266;28;20045;-64
2023/06/16 18:57:18;;;;;;;7.38;5.57;;;30.70;40.40;;;;;;10120693;28;20563;-63
2023/06/16 19:02:08;;;;;;;8.77;4.93;;;30.70;40.70;;;;;;10129379;28;20025;-65
2023/06/16 19:06:59;;;;;;;7.85;4.28;;;30.60;40.90;;;;;;10136289;28;20315;-65
2023/06/16 19:11:50;;;;;;;7.05;4.28;;;30.40;41.00;;;;;;10126081;28;20044;-64
2023/06/16 19:16:41;;;;;;;8.20;5.68;;;30.40;41.40;;;;;;10125747;28;20021;-64
2023/06/16 19:21:31;;;;;;;9.15;6.30;;;30.20;41.60;;;;;;10115169;28;20029;-63
2023/06/16 19:26:22;;;;;;;8.00;4.43;;;30.00;41.90;;;;;;10100617;28;20588;-65
2023/06/16 19:31:14;;;;;;;6.05;3.78;;;29.90;42.10;;;;;;10122002;28;20581;-64
2023/06/16 19:36:05;;;;;;;6.22;4.28;;;29.80;42.30;;;;;;10124843;28;20086;-64
2023/06/16 19:40:56;;;;;;;11.52;6.47;;;29.70;42.50;;;;;;10112561;28;20186;-64
2023/06/16 19:45:47;;;;;;;9.05;4.88;;;29.60;42.80;;;;;;10118876;28;20439;-64
2023/06/16 19:50:37;;;;;;;6.85;4.32;;;29.50;43.10;;;;;;10111423;28;20526;-64
2023/06/16 19:55:28;;;;;;;10.60;4.53;;;29.40;43.10;;;;;;10124381;28;20410;-63
2023/06/16 20:00:19;;;;;;;7.95;4.82;;;29.30;43.20;;;;;;10127972;28;20047;-65
2023/06/16 20:05:10;;;;;;;18.08;10.07;;;29.20;43.40;;;;;;10102903;28;20095;-64
2023/06/16 20:10:00;;;;;;;6.85;4.85;;;29.10;43.50;;;;;;10125403;28;20049;-67
2023/06/16 20:14:51;;;;;;;9.43;5.75;;;29.00;43.80;;;;;;10113088;28;20495;-65
2023/06/16 20:19:44;;;;;;;8.88;5.18;;;28.90;43.80;;;;;;10122803;28;20042;-64
2023/06/16 20:24:35;;;;;;;9.05;4.68;;;28.80;43.90;;;;;;10112085;28;20291;-65
2023/06/16 20:29:25;;;;;;;8.75;5.72;;;28.70;44.00;;;;;;10125498;28;20033;-65
2023/06/16 20:34:16;;;;;;;7.50;4.40;;;28.60;44.20;;;;;;10119034;28;20513;-66
2023/06/16 20:39:09;;;;;;;6.82;4.07;;;28.70;44.20;;;;;;10130910;28;20036;-64
2023/06/16 20:43:59;;;;;;;8.52;4.32;;;28.60;44.10;;;;;;10131083;28;20092;-66
2023/06/16 20:48:50;;;;;;;8.52;5.05;;;28.50;44.20;;;;;;10121651;28;20029;-63
2023/06/16 20:53:41;;;;;;;6.40;4.07;;;28.50;44.30;;;;;;10121869;28;20033;-65
2023/06/16 20:58:35;;;;;;;12.65;5.65;;;28.30;44.40;;;;;;10126757;28;20021;-65
2023/06/16 21:03:26;;;;;;;;;;;28.30;44.90;;;;;;10112557;28;20060;-64
2023/06/16 21:08:16;;;;;;;7.97;5.30;;;28.20;44.90;;;;;;10136384;28;19992;-63
2023/06/16 21:13:07;;;;;;;9.20;4.95;;;28.10;45.10;;;;;;10140781;28;20020;-63
2023/06/16 21:18:00;;;;;;;6.40;4.70;;;28.00;45.30;;;;;;10123205;28;20028;-63
2023/06/16 21:22:53;;;;;;;8.65;5.30;;;27.90;45.50;;;;;;10125295;28;20017;-65
2023/06/16 21:27:44;;;;;;;9.10;6.38;;;27.90;45.70;;;;;;10126205;28;20032;-62
2023/06/16 21:32:35;;;;;;;9.38;6.22;;;27.80;46.00;;;;;;10122771;28;20032;-63
2023/06/16 21:37:26;;;;;;;7.18;4.95;;;27.70;46.20;;;;;;10130970;28;20171;-63
2023/06/16 21:42:17;;;;;;;8.38;6.32;;;27.60;46.40;;;;;;10138358;28;20118;-64
2023/06/16 21:47:08;;;;;;;10.35;7.53;;;27.60;46.60;;;;;;10128019;28;20083;-63
2023/06/16 21:51:58;;;;;;;12.52;6.78;;;27.40;46.90;;;;;;10110887;28;20064;-62
2023/06/16 21:56:49;;;;;;;7.78;5.20;;;27.30;47.20;;;;;;10124950;28;20062;-64
2023/06/16 22:01:40;;;;;;;10.35;4.75;;;27.00;48.00;;;;;;10139638;28;20029;-62
2023/06/16 22:06:31;;;;;;;10.05;5.97;;;26.80;48.70;;;;;;10136537;28;20036;-61
2023/06/16 22:11:23;;;;;;;11.00;5.30;;;26.80;49.10;;;;;;10137458;28;20083;-62
2023/06/16 22:16:13;;;;;;;15.65;6.55;;;26.60;49.60;;;;;;10134044;28;20132;-63
2023/06/16 22:21:04;;;;;;;10.52;6.07;;;26.60;50.00;;;;;;10107559;28;20488;-63
2023/06/16 22:25:55;;;;;;;12.02;6.50;;;26.60;50.40;;;;;;10121191;28;20540;-63
2023/06/16 22:30:48;;;;;;;13.38;6.70;;;26.40;50.60;;;;;;10124120;28;20036;-63
2023/06/16 22:35:39;;;;;;;11.90;6.72;;;26.30;50.80;;;;;;10126895;28;20017;-63
2023/06/16 22:40:29;;;;;;;10.70;6.70;;;26.30;50.80;;;;;;10129128;28;20036;-63
2023/06/16 22:45:20;;;;;;;8.13;5.95;;;26.30;51.00;;;;;;10127283;28;20375;-63
2023/06/16 22:50:11;;;;;;;9.82;5.63;;;26.20;50.90;;;;;;10086795;28;20044;-62
2023/06/16 22:55:01;;;;;;;11.38;6.32;;;26.00;50.90;;;;;;10116874;28;20025;-63
2023/06/16 22:59:52;;;;;;;11.18;6.93;;;25.70;50.90;;;;;;10120454;28;20040;-62
2023/06/16 23:04:42;;;;;;;7.60;5.97;;;25.60;51.30;;;;;;10118402;28;20013;-61
2023/06/16 23:09:33;;;;;;;10.00;6.50;;;25.30;51.40;;;;;;10127409;28;20041;-63
2023/06/16 23:14:24;;;;;;;7.30;4.82;;;25.20;51.70;;;;;;10135842;28;20494;-63
2023/06/16 23:19:15;;;;;;;10.32;5.28;;;25.00;51.70;;;;;;10115018;28;20032;-62
2023/06/16 23:24:05;;;;;;;6.07;4.60;;;25.00;51.80;;;;;;10108344;28;20444;-63
2023/06/16 23:28:59;;;;;;;9.07;5.38;;;24.70;51.80;;;;;;10126560;28;20079;-62
2023/06/16 23:33:50;;;;;;;7.75;4.40;;;24.90;51.60;;;;;;10121003;28;20098;-63
2023/06/16 23:38:41;;;;;;;6.50;4.50;;;24.70;51.50;;;;;;10131123;28;20663;-64
2023/06/16 23:43:31;;;;;;;5.75;4.43;;;24.80;51.50;;;;;;10129790;28;20032;-64
2023/06/16 23:48:22;;;;;;;6.05;4.20;;;24.90;51.40;;;;;;10120984;28;20405;-64
2023/06/16 23:53:13;;;;;;;8.05;4.07;;;24.90;51.40;;;;;;10120761;28;20028;-62
2023/06/16 23:58:03;;;;;;;5.35;3.83;;;24.90;51.30;;;;;;10129745;28;20078;-62
